createdAt,value
2023-02-22T00:02:11.349Z,60.29
2023-02-22T00:04:42.675Z,56.09
2023-02-22T00:07:15.197Z,59.20
2023-02-22T00:09:46.128Z,62.63
2023-02-22T00:12:17.077Z,63.34
2023-02-22T00:14:47.816Z,60.50
2023-02-22T00:17:20.724Z,58.63
2023-02-22T00:19:51.516Z,60.41
2023-02-22T00:22:22.508Z,63.72
2023-02-22T00:24:53.289Z,62.72
2023-02-22T00:27:24.059Z,58.27
2023-02-22T00:29:56.904Z,59.23
2023-02-22T00:32:27.683Z,62.64
2023-02-22T00:34:58.989Z,63.96
2023-02-22T00:37:31.747Z,59.11
2023-02-22T00:40:02.432Z,58.41
2023-02-22T00:42:33.483Z,61.18
2023-02-22T00:45:04.721Z,64.42
2023-02-22T00:47:35.663Z,61.98
2023-02-22T00:50:08.105Z,58.02
2023-02-22T00:52:39.238Z,58.20
2023-02-22T00:55:11.320Z,61.25
2023-02-22T00:57:42.340Z,63.46
2023-02-22T01:00:17.482Z,61.21
2023-02-22T01:02:50.928Z,58.98
2023-02-22T01:05:21.398Z,60.50
2023-02-22T01:07:52.669Z,62.35
2023-02-22T01:10:25.241Z,65.25
2023-02-22T01:12:56.597Z,63.01
2023-02-22T01:15:29.283Z,60.56
2023-02-22T01:18:01.162Z,58.54
2023-02-22T01:20:32.825Z,58.97
2023-02-22T01:23:06.955Z,61.22
2023-02-22T01:25:38.338Z,65.52
2023-02-22T01:28:09.288Z,63.26
2023-02-22T01:30:40.223Z,60.57
2023-02-22T01:33:13.392Z,56.48
2023-02-22T01:35:43.106Z,59.39
2023-02-22T01:38:14.971Z,63.13
2023-02-22T01:40:48.669Z,64.90
2023-02-22T01:43:20.860Z,59.09
2023-02-22T01:45:59.969Z,58.80
2023-02-22T01:48:33.089Z,62.79
2023-02-22T01:51:11.137Z,62.57
2023-02-22T01:53:48.173Z,58.92
2023-02-22T01:56:20.249Z,61.63
2023-02-22T01:58:53.423Z,63.56
2023-02-22T02:01:25.344Z,61.19
2023-02-22T02:03:58.390Z,58.74
2023-02-22T02:06:32.245Z,57.40
2023-02-22T02:09:06.448Z,60.06
2023-02-22T02:11:40.646Z,64.86
2023-02-22T02:14:12.022Z,62.06
2023-02-22T02:16:43.968Z,58.45
2023-02-22T02:19:18.261Z,59.69
2023-02-22T02:22:01.080Z,64.16
2023-02-22T02:24:40.850Z,62.24
2023-02-22T02:27:15.191Z,58.85
2023-02-22T02:29:59.998Z,57.99
2023-02-22T02:32:35.553Z,62.04
2023-02-22T02:35:12.172Z,64.95
2023-02-22T02:37:49.542Z,59.63
2023-02-22T02:40:23.411Z,58.98
2023-02-22T02:42:56.782Z,63.74
2023-02-22T02:45:30.594Z,64.94
2023-02-22T02:48:03.644Z,62.09
2023-02-22T02:50:37.426Z,57.88
2023-02-22T02:53:09.924Z,61.03
2023-02-22T02:55:40.961Z,64.00
2023-02-22T02:58:17.836Z,63.04
2023-02-22T03:00:50.104Z,59.22
2023-02-22T03:03:41.726Z,58.32
2023-02-22T03:06:20.067Z,62.08
2023-02-22T03:08:57.050Z,64.54
2023-02-22T03:11:29.559Z,60.76
2023-02-22T03:14:04.032Z,58.67
2023-02-22T03:16:37.468Z,60.87
2023-02-22T03:19:10.617Z,64.76
2023-02-22T03:21:47.035Z,63.47
2023-02-22T03:24:22.226Z,59.07
2023-02-22T03:26:56.685Z,60.06
2023-02-22T03:29:29.824Z,63.95
2023-02-22T03:32:01.811Z,62.81
2023-02-22T03:34:37.059Z,58.30
2023-02-22T03:37:07.623Z,59.73
2023-02-22T03:39:39.026Z,63.77
2023-02-22T03:42:10.751Z,62.31
2023-02-22T03:44:42.769Z,58.35
2023-02-22T03:47:15.703Z,59.31
2023-02-22T03:49:49.627Z,63.30
2023-02-22T03:52:23.730Z,61.63
2023-02-22T03:54:53.864Z,58.45
2023-02-22T03:57:26.801Z,59.94
2023-02-22T04:00:08.061Z,64.22
2023-02-22T04:02:45.084Z,61.49
2023-02-22T04:05:19.427Z,58.72
2023-02-22T04:07:51.833Z,58.61
2023-02-22T04:10:23.959Z,62.39
2023-02-22T04:12:55.451Z,64.24
2023-02-22T04:15:27.292Z,62.00
2023-02-22T04:18:04.105Z,61.56
2023-02-22T04:20:35.311Z,58.19
2023-02-22T04:23:29.351Z,58.18
2023-02-22T04:26:01.683Z,61.48
2023-02-22T04:28:34.654Z,65.57
2023-02-22T04:31:19.556Z,64.76
2023-02-22T04:33:51.157Z,63.30
2023-02-22T04:36:25.237Z,60.13
2023-02-22T04:38:57.410Z,56.39
2023-02-22T04:41:28.484Z,59.54
2023-02-22T04:43:59.525Z,63.45
2023-02-22T04:46:31.713Z,63.33
2023-02-22T04:49:03.304Z,59.27
2023-02-22T04:51:37.113Z,59.21
2023-02-22T04:54:14.345Z,62.43
2023-02-22T04:56:48.200Z,64.45
2023-02-22T04:59:20.171Z,60.47
2023-02-22T05:01:57.156Z,58.69
2023-02-22T05:04:27.851Z,61.26
2023-02-22T05:06:58.812Z,64.71
2023-02-22T05:09:29.650Z,65.27
2023-02-22T05:12:00.592Z,63.92
2023-02-22T05:14:31.472Z,62.54
2023-02-22T05:17:03.244Z,60.63
2023-02-22T05:19:34.166Z,57.02
2023-02-22T05:22:06.031Z,57.68
2023-02-22T05:24:36.883Z,61.55
2023-02-22T05:27:07.755Z,64.57
2023-02-22T05:29:39.528Z,60.97
2023-02-22T05:32:10.270Z,59.08
2023-02-22T05:34:41.485Z,61.29
2023-02-22T05:37:12.140Z,64.99
2023-02-22T05:39:43.431Z,64.85
2023-02-22T05:42:14.054Z,59.93
2023-02-22T05:44:44.671Z,59.56
2023-02-22T05:47:15.360Z,63.15
2023-02-22T05:49:46.400Z,62.85
2023-02-22T05:52:17.045Z,61.21
2023-02-22T05:54:47.879Z,59.01
2023-02-22T05:57:18.907Z,60.52
2023-02-22T05:59:49.845Z,64.44
2023-02-22T06:02:20.605Z,63.55
2023-02-22T06:04:51.817Z,62.35
2023-02-22T06:07:22.889Z,59.67
2023-02-22T06:09:53.866Z,57.78
2023-02-22T06:12:25.469Z,60.63
2023-02-22T06:14:56.300Z,64.40
2023-02-22T06:17:27.027Z,65.53
2023-02-22T06:19:58.907Z,63.25
2023-02-22T06:22:30.435Z,62.45
2023-02-22T06:25:01.415Z,57.78
2023-02-22T06:27:33.982Z,56.72
2023-02-22T06:30:05.328Z,58.50
2023-02-22T06:32:36.745Z,61.08
2023-02-22T06:35:08.117Z,65.03
2023-02-22T06:37:40.793Z,63.62
2023-02-22T06:40:12.722Z,59.41
2023-02-22T06:42:43.579Z,58.42
2023-02-22T06:45:14.545Z,60.11
2023-02-22T06:47:45.443Z,64.30
2023-02-22T06:50:21.552Z,64.02
2023-02-22T06:52:53.721Z,61.20
2023-02-22T06:55:25.991Z,58.68
2023-02-22T06:57:56.879Z,58.57
2023-02-22T07:00:30.210Z,62.82
2023-02-22T07:03:01.647Z,63.42
2023-02-22T07:05:32.455Z,62.88
2023-02-22T07:08:08.211Z,58.28
2023-02-22T07:10:39.554Z,58.46
2023-02-22T07:13:10.539Z,62.05
2023-02-22T07:15:42.301Z,65.36
2023-02-22T07:18:14.210Z,64.17
2023-02-22T07:20:45.152Z,62.20
2023-02-22T07:23:17.077Z,57.58
2023-02-22T07:25:48.052Z,58.20
2023-02-22T07:28:18.994Z,60.61
2023-02-22T07:30:50.240Z,63.04
2023-02-22T07:33:20.999Z,61.19
2023-02-22T07:35:52.479Z,57.68
2023-02-22T07:38:23.456Z,58.97
2023-02-22T07:40:54.701Z,60.90
2023-02-22T07:43:26.663Z,63.10
2023-02-22T07:45:58.150Z,64.35
2023-02-22T07:48:29.974Z,60.57
2023-02-22T07:51:00.820Z,57.17
2023-02-22T07:53:34.026Z,58.30
2023-02-22T07:56:06.691Z,61.14
2023-02-22T07:58:37.467Z,61.88
2023-02-22T08:01:08.883Z,64.18
2023-02-22T08:03:40.094Z,62.07
2023-02-22T08:06:10.936Z,56.88
2023-02-22T08:08:42.925Z,57.42
2023-02-22T08:11:14.345Z,59.82
2023-02-22T08:13:45.568Z,62.36
2023-02-22T08:16:16.298Z,63.68
2023-02-22T08:18:47.371Z,61.33
2023-02-22T08:21:19.530Z,56.93
2023-02-22T08:23:54.632Z,55.65
2023-02-22T08:26:25.831Z,55.98
2023-02-22T08:28:57.382Z,56.26
2023-02-22T08:31:28.799Z,58.75
2023-02-22T08:34:01.194Z,60.22
2023-02-22T08:36:33.112Z,64.72
2023-02-22T08:39:04.175Z,58.32
2023-02-22T08:41:35.183Z,55.61
2023-02-22T08:44:05.973Z,57.18
2023-02-22T08:46:36.661Z,60.81
2023-02-22T08:49:09.163Z,62.15
2023-02-22T08:51:40.107Z,63.60
2023-02-22T08:54:11.261Z,59.58
2023-02-22T08:56:42.235Z,55.57
2023-02-22T08:59:12.997Z,56.58
2023-02-22T09:01:44.080Z,59.19
2023-02-22T09:04:14.854Z,60.90
2023-02-22T09:06:48.620Z,61.73
2023-02-22T09:09:21.440Z,61.69
2023-02-22T09:11:53.264Z,57.16
2023-02-22T09:14:24.465Z,56.14
2023-02-22T09:16:57.534Z,57.34
2023-02-22T09:19:26.875Z,56.52
2023-02-22T09:21:58.643Z,56.84
2023-02-22T09:24:29.825Z,59.16
2023-02-22T09:27:01.288Z,61.08
2023-02-22T09:29:32.425Z,60.78
2023-02-22T09:32:04.794Z,59.66
2023-02-22T09:34:35.880Z,59.58
2023-02-22T09:37:09.136Z,60.50
2023-02-22T09:39:40.190Z,61.64
2023-02-22T09:42:14.346Z,60.78
2023-02-22T09:44:49.383Z,59.67
2023-02-22T09:47:21.852Z,59.26
2023-02-22T09:49:58.305Z,59.29
2023-02-22T09:52:31.891Z,59.10
2023-02-22T09:55:08.734Z,57.68
2023-02-22T09:57:42.011Z,54.78
2023-02-22T10:00:18.455Z,54.08
2023-02-22T10:02:53.222Z,53.55
2023-02-22T10:05:27.898Z,54.55
2023-02-22T10:08:01.284Z,53.82
2023-02-22T10:10:33.868Z,53.25
2023-02-22T10:13:07.515Z,54.34
2023-02-22T10:15:54.427Z,53.15
2023-02-22T10:18:34.385Z,53.69
2023-02-22T10:21:09.064Z,52.83
2023-02-22T10:23:45.495Z,51.13
2023-02-22T10:26:18.021Z,51.59
2023-02-22T10:28:53.661Z,51.54
2023-02-22T10:31:26.885Z,51.42
2023-02-22T10:34:00.380Z,51.10
2023-02-22T10:36:31.188Z,50.36
2023-02-22T10:39:03.697Z,51.23
2023-02-22T10:41:35.652Z,51.28
2023-02-22T10:44:06.753Z,51.50
2023-02-22T10:46:38.075Z,51.57
2023-02-22T10:49:09.463Z,50.94
2023-02-22T10:51:40.734Z,50.61
2023-02-22T10:54:21.357Z,51.11
2023-02-22T10:56:55.275Z,51.74
2023-02-22T10:59:29.186Z,52.00
2023-02-22T11:02:00.430Z,51.35
2023-02-22T11:04:46.164Z,51.57
2023-02-22T11:07:22.312Z,52.41
2023-02-22T11:09:54.439Z,52.28
2023-02-22T11:12:29.873Z,52.00
2023-02-22T11:15:22.419Z,52.35
2023-02-22T11:17:55.693Z,52.39
2023-02-22T11:20:27.620Z,52.72
2023-02-22T11:23:01.321Z,52.82
2023-02-22T11:25:30.378Z,52.67
2023-02-22T11:28:08.094Z,53.57
2023-02-22T11:30:39.177Z,53.71
2023-02-22T11:33:17.972Z,52.89
2023-02-22T11:35:52.927Z,52.65
2023-02-22T11:38:24.719Z,52.73
2023-02-22T11:41:08.322Z,52.27
2023-02-22T11:43:37.292Z,51.68
2023-02-22T11:46:11.193Z,52.58
2023-02-22T11:48:45.068Z,53.34
2023-02-22T11:51:18.189Z,53.03
2023-02-22T11:53:55.355Z,52.52
2023-02-22T11:56:37.243Z,52.45
2023-02-22T11:59:14.460Z,52.21
2023-02-22T12:01:48.998Z,51.96
2023-02-22T12:04:30.126Z,51.54
2023-02-22T12:07:08.661Z,51.59
2023-02-22T12:09:42.740Z,50.88
2023-02-22T12:12:19.412Z,51.27
2023-02-22T12:14:55.941Z,51.16
2023-02-22T12:17:33.378Z,50.77
2023-02-22T12:20:10.448Z,50.95
2023-02-22T12:22:55.584Z,49.95
2023-02-22T12:25:29.615Z,50.72
2023-02-22T12:28:10.078Z,50.89
2023-02-22T12:30:48.674Z,51.24
2023-02-22T12:33:21.667Z,51.32
2023-02-22T12:35:55.000Z,50.81
2023-02-22T12:38:31.620Z,51.23
2023-02-22T12:41:07.779Z,50.94
2023-02-22T12:43:42.548Z,50.75
2023-02-22T12:46:16.345Z,50.14
2023-02-22T12:48:49.761Z,50.12
2023-02-22T12:51:25.382Z,49.79
2023-02-22T12:53:58.301Z,50.03
2023-02-22T12:56:33.929Z,49.57
2023-02-22T12:59:10.661Z,49.38
2023-02-22T13:01:42.673Z,49.65
2023-02-22T13:04:21.101Z,50.05
2023-02-22T13:07:03.055Z,50.51
2023-02-22T13:09:43.604Z,51.20
2023-02-22T13:12:18.689Z,50.92
2023-02-22T13:14:59.993Z,50.67
2023-02-22T13:17:35.946Z,50.55
2023-02-22T13:20:13.540Z,49.92
2023-02-22T13:22:46.567Z,49.97
2023-02-22T13:25:21.918Z,50.55
2023-02-22T13:27:56.194Z,50.86
2023-02-22T13:30:25.296Z,51.07
2023-02-22T13:33:14.649Z,51.35
2023-02-22T13:35:50.888Z,51.35
2023-02-22T13:38:30.952Z,50.54
2023-02-22T13:41:19.036Z,50.20
2023-02-22T13:44:04.346Z,50.12
2023-02-22T13:46:42.974Z,49.76
2023-02-22T13:49:30.285Z,49.02
2023-02-22T13:52:03.069Z,48.22
2023-02-22T13:54:38.406Z,48.67
2023-02-22T13:57:21.594Z,49.06
2023-02-22T14:00:12.638Z,49.56
2023-02-22T14:03:01.211Z,50.23
2023-02-22T14:05:50.188Z,50.39
2023-02-22T14:08:41.914Z,50.35
2023-02-22T14:11:30.646Z,50.80
2023-02-22T14:14:14.901Z,50.58
2023-02-22T14:16:46.285Z,50.44
2023-02-22T14:19:18.225Z,50.95
2023-02-22T14:22:02.614Z,50.97
2023-02-22T14:24:43.550Z,51.12
2023-02-22T14:27:15.281Z,51.60
2023-02-22T14:29:53.932Z,51.83
2023-02-22T14:32:31.950Z,51.54
2023-02-22T14:35:25.449Z,51.58
2023-02-22T14:38:07.608Z,51.71
2023-02-22T14:40:39.136Z,52.12
2023-02-22T14:43:12.519Z,52.33
2023-02-22T14:45:47.355Z,52.98
2023-02-22T14:48:24.058Z,52.96
2023-02-22T14:50:58.076Z,53.00
2023-02-22T14:53:34.694Z,53.36
2023-02-22T14:56:08.655Z,53.41
2023-02-22T14:58:41.702Z,53.02
2023-02-22T15:01:40.150Z,53.32
2023-02-22T15:04:31.797Z,52.97
2023-02-22T15:07:22.258Z,52.89
2023-02-22T15:09:56.519Z,53.13
2023-02-22T15:12:29.970Z,53.11
2023-02-22T15:15:14.974Z,53.13
2023-02-22T15:17:47.458Z,53.60
2023-02-22T15:20:21.247Z,53.55
2023-02-22T15:22:53.215Z,53.16
2023-02-22T15:25:27.410Z,53.29
2023-02-22T15:28:01.556Z,53.50
2023-02-22T15:30:34.584Z,53.83
2023-02-22T15:33:24.360Z,53.87
2023-02-22T15:35:58.658Z,54.08
2023-02-22T15:38:30.794Z,54.38
2023-02-22T15:41:03.803Z,54.68
2023-02-22T15:43:34.814Z,54.71
2023-02-22T15:46:12.967Z,55.01
2023-02-22T15:48:44.063Z,55.05
2023-02-22T15:51:17.673Z,55.12
2023-02-22T15:53:49.649Z,55.34
2023-02-22T15:56:26.969Z,55.17
2023-02-22T15:59:03.906Z,55.19
2023-02-22T16:01:40.712Z,55.41
2023-02-22T16:04:19.554Z,55.82
2023-02-22T16:06:55.208Z,55.77
2023-02-22T16:09:37.517Z,55.77
2023-02-22T16:12:12.721Z,55.74
2023-02-22T16:14:45.158Z,55.87
2023-02-22T16:17:35.063Z,56.07
2023-02-22T16:20:19.591Z,55.80
2023-02-22T16:22:50.703Z,56.20
2023-02-22T16:25:29.464Z,56.46
2023-02-22T16:28:06.462Z,56.09
2023-02-22T16:30:42.426Z,56.22
2023-02-22T16:33:18.507Z,56.26
2023-02-22T16:35:53.181Z,56.61
2023-02-22T16:38:24.267Z,56.91
2023-02-22T16:40:56.337Z,56.76
2023-02-22T16:43:29.787Z,56.66
2023-02-22T16:46:02.572Z,56.81
2023-02-22T16:48:34.225Z,56.91
2023-02-22T16:51:08.701Z,56.86
2023-02-22T16:53:39.369Z,57.08
2023-02-22T16:56:13.088Z,56.49
2023-02-22T16:58:44.852Z,56.57
2023-02-22T17:01:16.730Z,56.70
2023-02-22T17:03:48.075Z,57.07
2023-02-22T17:06:19.581Z,57.08
2023-02-22T17:08:52.136Z,57.35
2023-02-22T17:11:32.326Z,57.39
2023-02-22T17:14:03.561Z,57.23
2023-02-22T17:16:38.188Z,57.47
2023-02-22T17:19:11.270Z,57.68
2023-02-22T17:21:41.792Z,57.96
2023-02-22T17:24:14.177Z,57.86
2023-02-22T17:26:44.999Z,57.79
2023-02-22T17:29:18.082Z,57.65
2023-02-22T17:31:49.288Z,57.69
2023-02-22T17:34:20.612Z,57.68
2023-02-22T17:36:51.320Z,57.82
2023-02-22T17:39:27.777Z,57.91
2023-02-22T17:41:58.325Z,58.00
2023-02-22T17:44:34.851Z,58.44
2023-02-22T17:47:05.546Z,58.65
2023-02-22T17:49:36.649Z,58.56
2023-02-22T17:52:07.677Z,58.68
2023-02-22T17:54:39.459Z,58.80
2023-02-22T17:57:10.120Z,58.87
2023-02-22T17:59:46.449Z,59.05
2023-02-22T18:02:17.561Z,59.21
2023-02-22T18:04:49.396Z,59.37
2023-02-22T18:07:20.252Z,59.48
2023-02-22T18:09:56.148Z,59.49
2023-02-22T18:12:35.437Z,59.62
2023-02-22T18:15:13.291Z,59.75
2023-02-22T18:17:44.826Z,59.88
2023-02-22T18:20:16.645Z,59.98
2023-02-22T18:22:47.316Z,60.09
2023-02-22T18:25:18.683Z,60.21
2023-02-22T18:27:53.454Z,60.30
2023-02-22T18:30:24.866Z,60.58
2023-02-22T18:32:56.207Z,60.84
2023-02-22T18:35:27.655Z,61.13
2023-02-22T18:37:58.362Z,61.36
2023-02-22T18:40:34.845Z,61.39
2023-02-22T18:43:05.894Z,61.29
2023-02-22T18:45:41.636Z,61.39
2023-02-22T18:48:12.475Z,61.62
2023-02-22T18:50:43.454Z,61.75
2023-02-22T18:53:14.296Z,61.97
2023-02-22T18:55:45.177Z,61.95
2023-02-22T18:58:20.324Z,64.61
2023-02-22T19:00:57.204Z,69.00
2023-02-22T19:03:33.312Z,66.90
2023-02-22T19:06:10.092Z,60.79
2023-02-22T19:08:46.292Z,55.83
2023-02-22T19:11:19.562Z,53.11
2023-02-22T19:13:51.865Z,53.54
2023-02-22T19:16:23.784Z,54.32
2023-02-22T19:18:57.653Z,55.25
2023-02-22T19:21:29.306Z,56.13
2023-02-22T19:24:14.070Z,57.54
2023-02-22T19:26:51.100Z,58.04
2023-02-22T19:29:23.853Z,59.10
2023-02-22T19:31:55.230Z,59.51
2023-02-22T19:34:31.471Z,60.08
2023-02-22T19:37:07.680Z,60.45
2023-02-22T19:39:39.077Z,61.79
2023-02-22T19:42:11.112Z,63.65
2023-02-22T19:44:41.825Z,67.76
2023-02-22T19:47:13.176Z,65.53
2023-02-22T19:49:43.923Z,59.49
2023-02-22T19:52:15.453Z,55.82
2023-02-22T19:54:46.203Z,56.08
2023-02-22T19:57:17.583Z,56.82
2023-02-22T19:59:49.254Z,57.73
2023-02-22T20:02:23.395Z,58.70
2023-02-22T20:04:55.376Z,59.78
2023-02-22T20:07:26.806Z,60.77
2023-02-22T20:09:57.408Z,64.15
2023-02-22T20:12:28.380Z,67.26
2023-02-22T20:15:00.348Z,65.01
2023-02-22T20:17:31.308Z,61.96
2023-02-22T20:20:02.426Z,57.59
2023-02-22T20:22:33.773Z,54.80
2023-02-22T20:25:04.812Z,54.80
2023-02-22T20:27:36.625Z,55.61
2023-02-22T20:30:10.060Z,56.98
2023-02-22T20:32:43.059Z,58.00
2023-02-22T20:35:14.503Z,59.26
2023-02-22T20:37:46.058Z,60.01
2023-02-22T20:40:16.992Z,62.02
2023-02-22T20:42:48.444Z,63.94
2023-02-22T20:45:20.108Z,61.99
2023-02-22T20:47:51.487Z,58.66
2023-02-22T20:50:22.501Z,58.41
2023-02-22T20:52:57.970Z,61.48
2023-02-22T20:55:33.269Z,63.51
2023-02-22T20:58:08.389Z,62.58
2023-02-22T21:00:39.245Z,59.77
2023-02-22T21:03:10.293Z,58.50
2023-02-22T21:05:44.441Z,60.78
2023-02-22T21:08:16.158Z,63.48
2023-02-22T21:10:48.169Z,63.81
2023-02-22T21:13:19.412Z,60.28
2023-02-22T21:15:53.178Z,58.56
2023-02-22T21:18:25.150Z,60.07
2023-02-22T21:20:56.170Z,63.34
2023-02-22T21:23:27.428Z,62.27
2023-02-22T21:25:58.380Z,61.22
2023-02-22T21:28:42.520Z,58.29
2023-02-22T21:31:21.576Z,59.87
2023-02-22T21:33:53.506Z,62.75
2023-02-22T21:36:25.798Z,63.61
2023-02-22T21:38:57.547Z,61.02
2023-02-22T21:41:29.557Z,58.43
2023-02-22T21:44:00.625Z,58.85
2023-02-22T21:46:31.975Z,60.96
2023-02-22T21:49:02.976Z,63.93
2023-02-22T21:51:34.600Z,63.99
2023-02-22T21:54:06.591Z,62.03
2023-02-22T21:56:38.598Z,58.37
2023-02-22T21:59:12.096Z,58.55
2023-02-22T22:01:47.330Z,60.64
2023-02-22T22:04:20.221Z,64.24
2023-02-22T22:06:53.297Z,63.30
2023-02-22T22:09:24.744Z,60.37
2023-02-22T22:11:58.675Z,58.02
2023-02-22T22:14:29.494Z,59.12
2023-02-22T22:17:01.303Z,62.29
2023-02-22T22:19:33.814Z,63.53
2023-02-22T22:22:04.959Z,62.09
2023-02-22T22:24:35.529Z,59.99
2023-02-22T22:27:10.213Z,56.87
2023-02-22T22:29:40.950Z,57.43
2023-02-22T22:32:12.172Z,61.32
2023-02-22T22:34:43.818Z,64.61
2023-02-22T22:37:16.329Z,63.36
2023-02-22T22:39:47.052Z,61.39
2023-02-22T22:42:19.021Z,58.95
2023-02-22T22:44:50.514Z,58.23
2023-02-22T22:47:22.234Z,61.18
2023-02-22T22:49:53.273Z,64.39
2023-02-22T22:52:24.616Z,63.02
2023-02-22T22:54:55.339Z,61.37
2023-02-22T22:57:26.650Z,58.24
2023-02-22T22:59:57.317Z,59.99
2023-02-22T23:02:29.933Z,63.18
2023-02-22T23:05:01.043Z,63.82
2023-02-22T23:07:32.186Z,61.64
2023-02-22T23:10:03.104Z,58.44
2023-02-22T23:12:35.184Z,58.93
2023-02-22T23:15:06.957Z,62.46
2023-02-22T23:17:42.644Z,63.74
2023-02-22T23:20:14.212Z,61.39
2023-02-22T23:22:47.652Z,59.76
2023-02-22T23:25:20.035Z,58.51
2023-02-22T23:27:51.613Z,60.99
2023-02-22T23:30:22.417Z,64.20
2023-02-22T23:32:54.775Z,63.67
2023-02-22T23:35:27.090Z,60.24
2023-02-22T23:37:59.410Z,58.78
2023-02-22T23:40:30.190Z,61.09
2023-02-22T23:43:04.360Z,64.01
2023-02-22T23:45:38.806Z,62.59
2023-02-22T23:48:09.923Z,59.90
2023-02-22T23:50:40.513Z,59.37
2023-02-22T23:53:15.343Z,60.87
2023-02-22T23:55:46.018Z,62.81
2023-02-22T23:58:17.156Z,65.51
